RYR79QE EGSS-LEGE
Flight info
| Callsign | RYR79QE |
|---|---|
| Flight time | 1h 32m |
| Altitude | 33000 |
| Route | NUGBO M183 SILVA Q41 COWLY UT71 VAPID UN859 SOPIL DCT BALAN DCT EVPOK DCT NARAK DCT GAI DCT PPG A27 KANIG |
| Aircraft | B738/M-SDE2E3FGHIRWXY/LB1 |
Departure
| Time | 2026-04-22 16:39 |
|---|---|
| Airport | London Stansted Airport (EGSS) |
Arrival
| Time | 2026-04-22 18:11 |
|---|---|
| Airport | Girona-Costa Brava Airport (LEGE) |
| Time | Latitude | Longitude | Altitude | Speed | Heading |
|---|---|---|---|---|---|
| 2026-04-22 16:16 | 51.89324 | 0.26089 | 357 ft | 0 kts | 223° |
| 2026-04-22 16:28 | 51.89336 | 0.26107 | 361 ft | 4 kts | 233° |
| 2026-04-22 16:29 | 51.89347 | 0.26145 | 360 ft | 4 kts | 264° |
| 2026-04-22 16:29 | 51.89343 | 0.26183 | 357 ft | 3 kts | 310° |
| 2026-04-22 16:29 | 51.89341 | 0.26188 | 356 ft | 1 kts | 313° |
| 2026-04-22 16:32 | 51.89344 | 0.26183 | 357 ft | 2 kts | 313° |
| 2026-04-22 16:32 | 51.89366 | 0.26145 | 358 ft | 8 kts | 314° |
| 2026-04-22 16:32 | 51.89417 | 0.26056 | 351 ft | 13 kts | 312° |
| 2026-04-22 16:32 | 51.89491 | 0.25928 | 355 ft | 17 kts | 313° |
| 2026-04-22 16:33 | 51.89521 | 0.25798 | 359 ft | 12 kts | 236° |
| 2026-04-22 16:33 | 51.89462 | 0.25706 | 358 ft | 12 kts | 223° |
| 2026-04-22 16:33 | 51.89385 | 0.25591 | 359 ft | 19 kts | 223° |
| 2026-04-22 16:33 | 51.89273 | 0.25423 | 356 ft | 25 kts | 223° |
| 2026-04-22 16:34 | 51.89148 | 0.25236 | 353 ft | 24 kts | 223° |
| 2026-04-22 16:34 | 51.89031 | 0.25060 | 356 ft | 23 kts | 223° |
| 2026-04-22 16:34 | 51.88917 | 0.24889 | 351 ft | 22 kts | 223° |
| 2026-04-22 16:34 | 51.88807 | 0.24723 | 360 ft | 21 kts | 223° |
| 2026-04-22 16:35 | 51.88697 | 0.24558 | 352 ft | 22 kts | 223° |
| 2026-04-22 16:35 | 51.88586 | 0.24392 | 353 ft | 21 kts | 223° |
| 2026-04-22 16:35 | 51.88479 | 0.24230 | 348 ft | 21 kts | 223° |
| 2026-04-22 16:35 | 51.88374 | 0.24074 | 344 ft | 20 kts | 223° |
| 2026-04-22 16:36 | 51.88273 | 0.23922 | 348 ft | 20 kts | 223° |
| 2026-04-22 16:36 | 51.88172 | 0.23771 | 340 ft | 21 kts | 222° |
| 2026-04-22 16:36 | 51.88069 | 0.23615 | 337 ft | 20 kts | 223° |
| 2026-04-22 16:36 | 51.87968 | 0.23465 | 340 ft | 20 kts | 222° |
| 2026-04-22 16:37 | 51.87877 | 0.23321 | 337 ft | 16 kts | 240° |
| 2026-04-22 16:37 | 51.87919 | 0.23169 | 337 ft | 16 kts | 303° |
| 2026-04-22 16:37 | 51.87872 | 0.23022 | 337 ft | 16 kts | 223° |
| 2026-04-22 16:37 | 51.87819 | 0.22892 | 338 ft | 14 kts | 287° |
| 2026-04-22 16:38 | 51.87891 | 0.22757 | 329 ft | 17 kts | 313° |
| 2026-04-22 16:38 | 51.87953 | 0.22673 | 331 ft | 7 kts | 5° |
| 2026-04-22 16:38 | 51.88031 | 0.22775 | 328 ft | 35 kts | 43° |
| 2026-04-22 16:38 | 51.88372 | 0.23287 | 338 ft | 97 kts | 41° |
| 2026-04-22 16:39 | 51.88759 | 0.23869 | 341 ft | 131 kts | 43° |
| 2026-04-22 16:39 | 51.89498 | 0.25000 | 622 ft | 152 kts | 48° |
| 2026-04-22 16:39 | 51.90510 | 0.26598 | 1468 ft | 158 kts | 50° |
| 2026-04-22 16:39 | 51.91334 | 0.27863 | 2035 ft | 168 kts | 48° |
| 2026-04-22 16:40 | 51.92276 | 0.29153 | 2433 ft | 186 kts | 36° |
| 2026-04-22 16:40 | 51.93562 | 0.29782 | 2930 ft | 201 kts | 9° |
| 2026-04-22 16:40 | 51.95926 | 0.28845 | 3520 ft | 230 kts | 330° |
| 2026-04-22 16:41 | 51.97028 | 0.26874 | 3864 ft | 243 kts | 295° |
| 2026-04-22 16:41 | 51.97435 | 0.24180 | 4167 ft | 252 kts | 277° |
| 2026-04-22 16:41 | 51.97696 | 0.20330 | 4487 ft | 267 kts | 276° |
| 2026-04-22 16:41 | 51.97923 | 0.17284 | 4723 ft | 280 kts | 275° |
| 2026-04-22 16:42 | 51.98183 | 0.14072 | 5076 ft | 292 kts | 277° |
| 2026-04-22 16:42 | 51.98386 | 0.11920 | 5579 ft | 290 kts | 277° |
| 2026-04-22 16:42 | 51.98714 | 0.08711 | 6352 ft | 290 kts | 278° |
| 2026-04-22 16:42 | 51.98924 | 0.05444 | 6945 ft | 292 kts | 262° |
| 2026-04-22 16:43 | 51.98539 | 0.02244 | 7637 ft | 290 kts | 253° |
| 2026-04-22 16:43 | 51.98094 | -0.00960 | 8302 ft | 292 kts | 254° |
| 2026-04-22 16:43 | 51.97665 | -0.04201 | 8964 ft | 296 kts | 255° |
| 2026-04-22 16:43 | 51.97242 | -0.07462 | 9748 ft | 296 kts | 255° |
| 2026-04-22 16:44 | 51.96786 | -0.10746 | 10344 ft | 302 kts | 251° |
| 2026-04-22 16:44 | 51.96129 | -0.14026 | 10731 ft | 315 kts | 246° |
| 2026-04-22 16:44 | 51.95372 | -0.17428 | 10925 ft | 335 kts | 246° |
| 2026-04-22 16:44 | 51.94543 | -0.21022 | 11349 ft | 345 kts | 246° |
| 2026-04-22 16:45 | 51.93689 | -0.24655 | 12074 ft | 346 kts | 246° |
| 2026-04-22 16:45 | 51.92823 | -0.28332 | 12682 ft | 351 kts | 246° |
| 2026-04-22 16:45 | 51.91949 | -0.32050 | 13347 ft | 356 kts | 246° |
| 2026-04-22 16:45 | 51.91068 | -0.35791 | 14127 ft | 357 kts | 245° |
| 2026-04-22 16:46 | 51.90169 | -0.39552 | 14790 ft | 360 kts | 246° |
| 2026-04-22 16:46 | 51.89254 | -0.43355 | 15366 ft | 365 kts | 246° |
| 2026-04-22 16:46 | 51.88323 | -0.47214 | 15971 ft | 371 kts | 245° |
| 2026-04-22 16:46 | 51.87382 | -0.51114 | 16649 ft | 374 kts | 246° |
| 2026-04-22 16:47 | 51.86420 | -0.55023 | 17406 ft | 373 kts | 246° |
| 2026-04-22 16:47 | 51.85459 | -0.58879 | 18130 ft | 374 kts | 246° |
| 2026-04-22 16:47 | 51.84461 | -0.62789 | 18690 ft | 380 kts | 241° |
| 2026-04-22 16:47 | 51.82891 | -0.66189 | 19136 ft | 381 kts | 218° |
| 2026-04-22 16:48 | 51.80569 | -0.68196 | 19659 ft | 381 kts | 193° |
| 2026-04-22 16:48 | 51.77926 | -0.68553 | 20094 ft | 385 kts | 176° |
| 2026-04-22 16:48 | 51.75218 | -0.68482 | 20456 ft | 395 kts | 180° |
| 2026-04-22 16:48 | 51.72456 | -0.68626 | 20912 ft | 400 kts | 182° |
| 2026-04-22 16:49 | 51.69659 | -0.68848 | 21452 ft | 403 kts | 183° |
| 2026-04-22 16:49 | 51.66841 | -0.69099 | 22004 ft | 406 kts | 183° |
| 2026-04-22 16:49 | 51.64056 | -0.69349 | 22622 ft | 406 kts | 184° |
| 2026-04-22 16:49 | 51.61164 | -0.69604 | 22909 ft | 417 kts | 184° |
| 2026-04-22 16:50 | 51.58301 | -0.69849 | 23365 ft | 421 kts | 184° |
| 2026-04-22 16:50 | 51.55366 | -0.70094 | 23904 ft | 423 kts | 184° |
| 2026-04-22 16:50 | 51.52407 | -0.70338 | 24254 ft | 428 kts | 184° |
| 2026-04-22 16:50 | 51.49423 | -0.70582 | 24675 ft | 430 kts | 184° |
| 2026-04-22 16:51 | 51.46429 | -0.70825 | 25163 ft | 431 kts | 184° |
| 2026-04-22 16:51 | 51.43424 | -0.71068 | 25593 ft | 433 kts | 184° |
| 2026-04-22 16:51 | 51.40404 | -0.71312 | 25996 ft | 436 kts | 185° |
| 2026-04-22 16:51 | 51.37366 | -0.71557 | 26391 ft | 438 kts | 185° |
| 2026-04-22 16:52 | 51.34312 | -0.71804 | 26797 ft | 440 kts | 185° |
| 2026-04-22 16:52 | 51.31248 | -0.72051 | 27205 ft | 442 kts | 185° |
| 2026-04-22 16:52 | 51.28209 | -0.72296 | 27587 ft | 444 kts | 185° |
| 2026-04-22 16:52 | 51.25111 | -0.72545 | 27958 ft | 447 kts | 185° |
| 2026-04-22 16:53 | 51.21997 | -0.72795 | 28321 ft | 449 kts | 185° |
| 2026-04-22 16:53 | 51.18864 | -0.72978 | 28667 ft | 453 kts | 181° |
| 2026-04-22 16:53 | 51.15710 | -0.72397 | 28957 ft | 460 kts | 169° |
| 2026-04-22 16:53 | 51.12637 | -0.70931 | 29282 ft | 465 kts | 159° |
| 2026-04-22 16:54 | 51.09658 | -0.68863 | 29628 ft | 467 kts | 157° |
| 2026-04-22 16:54 | 51.06690 | -0.66717 | 29923 ft | 470 kts | 157° |
| 2026-04-22 16:54 | 51.03708 | -0.64548 | 30211 ft | 473 kts | 157° |
| 2026-04-22 16:54 | 51.00743 | -0.62409 | 30473 ft | 475 kts | 157° |
| 2026-04-22 16:55 | 50.97720 | -0.60251 | 30739 ft | 477 kts | 158° |
| 2026-04-22 16:55 | 50.94685 | -0.58106 | 31020 ft | 478 kts | 158° |
| 2026-04-22 16:55 | 50.91636 | -0.55967 | 31286 ft | 480 kts | 158° |
| 2026-04-22 16:55 | 50.88576 | -0.53830 | 31560 ft | 481 kts | 158° |
| 2026-04-22 16:56 | 50.85514 | -0.51698 | 31902 ft | 480 kts | 158° |
| 2026-04-22 16:56 | 50.82457 | -0.49572 | 32262 ft | 479 kts | 158° |
| 2026-04-22 16:56 | 50.79406 | -0.47452 | 32598 ft | 479 kts | 158° |
| 2026-04-22 16:56 | 50.76357 | -0.45336 | 32893 ft | 479 kts | 158° |
| 2026-04-22 16:57 | 50.73352 | -0.43254 | 33185 ft | 479 kts | 158° |
| 2026-04-22 16:57 | 50.70303 | -0.41143 | 33514 ft | 478 kts | 158° |
| 2026-04-22 16:57 | 50.67257 | -0.39038 | 33835 ft | 478 kts | 158° |
| 2026-04-22 16:57 | 50.64215 | -0.36938 | 34121 ft | 478 kts | 158° |
| 2026-04-22 16:58 | 50.61163 | -0.34835 | 34285 ft | 480 kts | 158° |
| 2026-04-22 16:58 | 50.58098 | -0.32725 | 34479 ft | 481 kts | 158° |
| 2026-04-22 16:58 | 50.55037 | -0.30621 | 34793 ft | 479 kts | 158° |
| 2026-04-22 16:58 | 50.51995 | -0.28532 | 35136 ft | 476 kts | 158° |
| 2026-04-22 16:59 | 50.48998 | -0.26477 | 35267 ft | 478 kts | 158° |
| 2026-04-22 16:59 | 50.42858 | -0.22279 | 35263 ft | 482 kts | 158° |
| 2026-04-22 17:00 | 50.36754 | -0.18114 | 35248 ft | 475 kts | 159° |
| 2026-04-22 17:00 | 50.27668 | -0.11938 | 35260 ft | 475 kts | 159° |
| 2026-04-22 17:01 | 50.21544 | -0.07793 | 35263 ft | 485 kts | 159° |
| 2026-04-22 17:01 | 50.15338 | -0.03600 | 35257 ft | 494 kts | 159° |
| 2026-04-22 17:02 | 50.08983 | 0.00534 | 35243 ft | 495 kts | 165° |
| 2026-04-22 17:02 | 50.02324 | 0.03229 | 35240 ft | 495 kts | 169° |
| 2026-04-22 17:03 | 49.95610 | 0.05697 | 35221 ft | 496 kts | 169° |
| 2026-04-22 17:03 | 49.88966 | 0.08241 | 35225 ft | 495 kts | 169° |
| 2026-04-22 17:04 | 49.82287 | 0.10855 | 35217 ft | 494 kts | 169° |
| 2026-04-22 17:04 | 49.75643 | 0.13449 | 35212 ft | 492 kts | 169° |
| 2026-04-22 17:05 | 49.69011 | 0.16024 | 35210 ft | 491 kts | 169° |
| 2026-04-22 17:05 | 49.62447 | 0.18637 | 35212 ft | 490 kts | 168° |
| 2026-04-22 17:06 | 49.55857 | 0.21327 | 35211 ft | 490 kts | 168° |
| 2026-04-22 17:06 | 49.49274 | 0.23999 | 35202 ft | 489 kts | 168° |
| 2026-04-22 17:07 | 49.42703 | 0.26645 | 35209 ft | 488 kts | 168° |
| 2026-04-22 17:07 | 49.36149 | 0.29277 | 35213 ft | 487 kts | 168° |
| 2026-04-22 17:08 | 49.29634 | 0.31892 | 35207 ft | 487 kts | 168° |
| 2026-04-22 17:08 | 49.23089 | 0.34632 | 35210 ft | 488 kts | 168° |
| 2026-04-22 17:09 | 49.16544 | 0.37407 | 35193 ft | 488 kts | 168° |
| 2026-04-22 17:09 | 49.10036 | 0.40144 | 35191 ft | 488 kts | 168° |
| 2026-04-22 17:10 | 49.03490 | 0.42878 | 35180 ft | 488 kts | 168° |
| 2026-04-22 17:10 | 48.96935 | 0.45607 | 35189 ft | 489 kts | 168° |
| 2026-04-22 17:11 | 48.90363 | 0.48336 | 35187 ft | 490 kts | 168° |
| 2026-04-22 17:11 | 48.83775 | 0.51067 | 35189 ft | 491 kts | 168° |
| 2026-04-22 17:12 | 48.77211 | 0.53767 | 35181 ft | 492 kts | 168° |
| 2026-04-22 17:12 | 48.70575 | 0.56364 | 35177 ft | 493 kts | 169° |
| 2026-04-22 17:13 | 48.63931 | 0.58935 | 35160 ft | 493 kts | 169° |
| 2026-04-22 17:13 | 48.57292 | 0.61519 | 35165 ft | 492 kts | 169° |
| 2026-04-22 17:14 | 48.50712 | 0.64084 | 35162 ft | 492 kts | 168° |
| 2026-04-22 17:14 | 48.44103 | 0.66764 | 35157 ft | 492 kts | 168° |
| 2026-04-22 17:15 | 48.37503 | 0.69465 | 35154 ft | 491 kts | 168° |
| 2026-04-22 17:15 | 48.30908 | 0.72137 | 35157 ft | 491 kts | 168° |
| 2026-04-22 17:16 | 48.24316 | 0.74794 | 35150 ft | 490 kts | 168° |
| 2026-04-22 17:16 | 48.17765 | 0.77384 | 35147 ft | 490 kts | 169° |
| 2026-04-22 17:17 | 48.11171 | 0.79967 | 35139 ft | 489 kts | 169° |
| 2026-04-22 17:17 | 48.04589 | 0.82545 | 35126 ft | 489 kts | 169° |
| 2026-04-22 17:18 | 47.98004 | 0.85123 | 35141 ft | 489 kts | 169° |
| 2026-04-22 17:18 | 47.91459 | 0.87678 | 35135 ft | 490 kts | 169° |
| 2026-04-22 17:19 | 47.78258 | 0.92808 | 35113 ft | 491 kts | 169° |
| 2026-04-22 17:20 | 47.65064 | 0.97899 | 35111 ft | 492 kts | 169° |
| 2026-04-22 17:21 | 47.55131 | 1.01718 | 35111 ft | 492 kts | 169° |
| 2026-04-22 17:22 | 47.45195 | 1.05517 | 35098 ft | 491 kts | 170° |
| 2026-04-22 17:22 | 47.38494 | 1.06514 | 35109 ft | 481 kts | 186° |
| 2026-04-22 17:23 | 47.35196 | 1.06383 | 35096 ft | 480 kts | 186° |
| 2026-04-22 17:23 | 47.25169 | 1.06002 | 35098 ft | 481 kts | 186° |
| 2026-04-22 17:24 | 47.18477 | 1.05844 | 35096 ft | 481 kts | 185° |
| 2026-04-22 17:24 | 47.11787 | 1.05703 | 35088 ft | 480 kts | 186° |
| 2026-04-22 17:25 | 47.05109 | 1.05556 | 35089 ft | 480 kts | 186° |
| 2026-04-22 17:25 | 46.98472 | 1.05364 | 35084 ft | 480 kts | 186° |
| 2026-04-22 17:26 | 46.91804 | 1.05057 | 35086 ft | 479 kts | 187° |
| 2026-04-22 17:26 | 46.85141 | 1.04747 | 35085 ft | 479 kts | 186° |
| 2026-04-22 17:27 | 46.78480 | 1.04453 | 35082 ft | 479 kts | 186° |
| 2026-04-22 17:27 | 46.71863 | 1.04169 | 35076 ft | 479 kts | 186° |
| 2026-04-22 17:28 | 46.65200 | 1.03883 | 35081 ft | 479 kts | 186° |
| 2026-04-22 17:28 | 46.58545 | 1.03597 | 35077 ft | 479 kts | 186° |
| 2026-04-22 17:29 | 46.51878 | 1.03440 | 35064 ft | 482 kts | 181° |
| 2026-04-22 17:29 | 46.45282 | 1.05197 | 35083 ft | 488 kts | 170° |
| 2026-04-22 17:30 | 46.38684 | 1.07533 | 35065 ft | 488 kts | 170° |
| 2026-04-22 17:30 | 46.32077 | 1.09818 | 35051 ft | 488 kts | 171° |
| 2026-04-22 17:31 | 46.25464 | 1.12036 | 35064 ft | 488 kts | 171° |
| 2026-04-22 17:31 | 46.18893 | 1.14212 | 35059 ft | 488 kts | 171° |
| 2026-04-22 17:32 | 46.12281 | 1.16397 | 35054 ft | 488 kts | 171° |
| 2026-04-22 17:32 | 46.05662 | 1.18581 | 35058 ft | 488 kts | 171° |
| 2026-04-22 17:33 | 45.99035 | 1.20765 | 35049 ft | 489 kts | 171° |
| 2026-04-22 17:33 | 45.92398 | 1.22947 | 35050 ft | 490 kts | 171° |
| 2026-04-22 17:34 | 45.85798 | 1.25111 | 35051 ft | 490 kts | 171° |
| 2026-04-22 17:34 | 45.79147 | 1.27286 | 35058 ft | 490 kts | 171° |
| 2026-04-22 17:35 | 45.72482 | 1.29461 | 35047 ft | 491 kts | 171° |
| 2026-04-22 17:35 | 45.65858 | 1.31617 | 35043 ft | 491 kts | 171° |
| 2026-04-22 17:36 | 45.59201 | 1.33779 | 35023 ft | 491 kts | 171° |
| 2026-04-22 17:36 | 45.52549 | 1.35935 | 35010 ft | 491 kts | 171° |
| 2026-04-22 17:37 | 45.45873 | 1.38092 | 35020 ft | 491 kts | 171° |
| 2026-04-22 17:37 | 45.39236 | 1.40231 | 35017 ft | 490 kts | 171° |
| 2026-04-22 17:38 | 45.32574 | 1.42374 | 35017 ft | 490 kts | 171° |
| 2026-04-22 17:38 | 45.25969 | 1.44494 | 35013 ft | 490 kts | 171° |
| 2026-04-22 17:39 | 45.19328 | 1.46621 | 35017 ft | 490 kts | 171° |
| 2026-04-22 17:40 | 45.09370 | 1.49800 | 35023 ft | 489 kts | 171° |
| 2026-04-22 17:40 | 45.02751 | 1.51907 | 35020 ft | 489 kts | 171° |
| 2026-04-22 17:41 | 44.96102 | 1.54019 | 34992 ft | 489 kts | 171° |
| 2026-04-22 17:41 | 44.89481 | 1.56116 | 35007 ft | 489 kts | 171° |
| 2026-04-22 17:42 | 44.82835 | 1.58217 | 35010 ft | 489 kts | 171° |
| 2026-04-22 17:42 | 44.76177 | 1.60316 | 35011 ft | 490 kts | 171° |
| 2026-04-22 17:43 | 44.69523 | 1.62409 | 35008 ft | 491 kts | 171° |
| 2026-04-22 17:43 | 44.62907 | 1.64486 | 35020 ft | 491 kts | 171° |
| 2026-04-22 17:44 | 44.56215 | 1.66582 | 35011 ft | 491 kts | 171° |
| 2026-04-22 17:44 | 44.49551 | 1.68663 | 35032 ft | 490 kts | 171° |
| 2026-04-22 17:45 | 44.42933 | 1.70727 | 35040 ft | 491 kts | 171° |
| 2026-04-22 17:45 | 44.36267 | 1.72800 | 35037 ft | 491 kts | 170° |
| 2026-04-22 17:46 | 44.29608 | 1.74862 | 35042 ft | 490 kts | 171° |
| 2026-04-22 17:46 | 44.22893 | 1.76485 | 35048 ft | 489 kts | 174° |
| 2026-04-22 17:47 | 44.16219 | 1.77863 | 35051 ft | 488 kts | 174° |
| 2026-04-22 17:47 | 44.09494 | 1.79303 | 35046 ft | 489 kts | 174° |
| 2026-04-22 17:47 | 44.06117 | 1.80046 | 34616 ft | 493 kts | 174° |
| 2026-04-22 17:48 | 44.03883 | 1.80539 | 34377 ft | 490 kts | 174° |
| 2026-04-22 17:48 | 43.99407 | 1.81530 | 33823 ft | 486 kts | 173° |
| 2026-04-22 17:48 | 43.96110 | 1.82682 | 33410 ft | 492 kts | 163° |
| 2026-04-22 17:48 | 43.92935 | 1.84500 | 33061 ft | 496 kts | 154° |
| 2026-04-22 17:49 | 43.89950 | 1.86941 | 32584 ft | 500 kts | 149° |
| 2026-04-22 17:49 | 43.87068 | 1.89526 | 32076 ft | 500 kts | 148° |
| 2026-04-22 17:49 | 43.84162 | 1.92173 | 31590 ft | 501 kts | 148° |
| 2026-04-22 17:49 | 43.81239 | 1.94830 | 31094 ft | 504 kts | 148° |
| 2026-04-22 17:50 | 43.78295 | 1.97481 | 30606 ft | 506 kts | 148° |
| 2026-04-22 17:50 | 43.75334 | 2.00119 | 30132 ft | 507 kts | 148° |
| 2026-04-22 17:50 | 43.72362 | 2.02746 | 29579 ft | 507 kts | 149° |
| 2026-04-22 17:50 | 43.69393 | 2.05356 | 29029 ft | 507 kts | 149° |
| 2026-04-22 17:51 | 43.66417 | 2.07965 | 28477 ft | 505 kts | 149° |
| 2026-04-22 17:51 | 43.63469 | 2.10545 | 27957 ft | 499 kts | 149° |
| 2026-04-22 17:51 | 43.60590 | 2.13063 | 27438 ft | 494 kts | 149° |
| 2026-04-22 17:51 | 43.57702 | 2.15586 | 26944 ft | 489 kts | 149° |
| 2026-04-22 17:52 | 43.54849 | 2.18078 | 26435 ft | 483 kts | 149° |
| 2026-04-22 17:52 | 43.52025 | 2.20541 | 25937 ft | 477 kts | 149° |
| 2026-04-22 17:52 | 43.49232 | 2.22976 | 25451 ft | 473 kts | 149° |
| 2026-04-22 17:52 | 43.46462 | 2.25386 | 24987 ft | 469 kts | 149° |
| 2026-04-22 17:53 | 43.43722 | 2.27769 | 24632 ft | 463 kts | 149° |
| 2026-04-22 17:53 | 43.41011 | 2.30125 | 24288 ft | 461 kts | 150° |
| 2026-04-22 17:53 | 43.38289 | 2.32485 | 23942 ft | 464 kts | 150° |
| 2026-04-22 17:53 | 43.35569 | 2.34842 | 23577 ft | 461 kts | 150° |
| 2026-04-22 17:54 | 43.32900 | 2.37152 | 23180 ft | 458 kts | 150° |
| 2026-04-22 17:54 | 43.30209 | 2.39480 | 22776 ft | 455 kts | 150° |
| 2026-04-22 17:54 | 43.27545 | 2.41782 | 22382 ft | 452 kts | 150° |
| 2026-04-22 17:54 | 43.24889 | 2.44074 | 21991 ft | 450 kts | 150° |
| 2026-04-22 17:55 | 43.23135 | 2.45586 | 21736 ft | 448 kts | 150° |
| 2026-04-22 17:55 | 43.19615 | 2.48618 | 21213 ft | 445 kts | 149° |
| 2026-04-22 17:55 | 43.16998 | 2.50870 | 20845 ft | 443 kts | 149° |
| 2026-04-22 17:55 | 43.14427 | 2.53080 | 20471 ft | 441 kts | 149° |
| 2026-04-22 17:56 | 43.11834 | 2.55306 | 20101 ft | 439 kts | 149° |
| 2026-04-22 17:56 | 43.09254 | 2.57519 | 19738 ft | 437 kts | 149° |
| 2026-04-22 17:56 | 43.06686 | 2.59720 | 19379 ft | 434 kts | 149° |
| 2026-04-22 17:56 | 43.04130 | 2.61908 | 19019 ft | 432 kts | 149° |
| 2026-04-22 17:57 | 43.01585 | 2.64085 | 18681 ft | 430 kts | 149° |
| 2026-04-22 17:57 | 42.99057 | 2.66245 | 18328 ft | 428 kts | 149° |
| 2026-04-22 17:57 | 42.96531 | 2.68401 | 17921 ft | 426 kts | 149° |
| 2026-04-22 17:57 | 42.94027 | 2.70537 | 17525 ft | 424 kts | 149° |
| 2026-04-22 17:58 | 42.91564 | 2.72636 | 17144 ft | 422 kts | 150° |
| 2026-04-22 17:58 | 42.89077 | 2.74752 | 16757 ft | 419 kts | 150° |
| 2026-04-22 17:58 | 42.86615 | 2.76847 | 16372 ft | 417 kts | 150° |
| 2026-04-22 17:58 | 42.84162 | 2.78931 | 15999 ft | 414 kts | 150° |
| 2026-04-22 17:59 | 42.81728 | 2.80998 | 15624 ft | 411 kts | 150° |
| 2026-04-22 17:59 | 42.79309 | 2.83049 | 15213 ft | 408 kts | 150° |
| 2026-04-22 17:59 | 42.76904 | 2.85088 | 14806 ft | 406 kts | 151° |
| 2026-04-22 17:59 | 42.74473 | 2.87012 | 14395 ft | 401 kts | 158° |
| 2026-04-22 18:00 | 42.72761 | 2.87918 | 14126 ft | 396 kts | 165° |
| 2026-04-22 18:00 | 42.69293 | 2.89342 | 13578 ft | 389 kts | 167° |
| 2026-04-22 18:00 | 42.66718 | 2.90368 | 13125 ft | 381 kts | 167° |
| 2026-04-22 18:00 | 42.64214 | 2.91389 | 12675 ft | 372 kts | 166° |
| 2026-04-22 18:01 | 42.61768 | 2.92411 | 12242 ft | 364 kts | 166° |
| 2026-04-22 18:01 | 42.59383 | 2.93424 | 11810 ft | 354 kts | 165° |
| 2026-04-22 18:01 | 42.57068 | 2.94415 | 11375 ft | 344 kts | 165° |
| 2026-04-22 18:01 | 42.54812 | 2.95383 | 10953 ft | 335 kts | 165° |
| 2026-04-22 18:02 | 42.52612 | 2.96326 | 10539 ft | 328 kts | 164° |
| 2026-04-22 18:02 | 42.50486 | 2.97236 | 10140 ft | 322 kts | 164° |
| 2026-04-22 18:02 | 42.48345 | 2.97990 | 9692 ft | 315 kts | 177° |
| 2026-04-22 18:02 | 42.46216 | 2.97694 | 9303 ft | 304 kts | 195° |
| 2026-04-22 18:03 | 42.44198 | 2.96951 | 8898 ft | 297 kts | 198° |
| 2026-04-22 18:03 | 42.42237 | 2.96157 | 8516 ft | 292 kts | 199° |
| 2026-04-22 18:03 | 42.40300 | 2.95371 | 8139 ft | 290 kts | 198° |
| 2026-04-22 18:03 | 42.38375 | 2.94602 | 7778 ft | 287 kts | 198° |
| 2026-04-22 18:04 | 42.36474 | 2.93853 | 7461 ft | 283 kts | 199° |
| 2026-04-22 18:04 | 42.34594 | 2.93118 | 7140 ft | 279 kts | 199° |
| 2026-04-22 18:04 | 42.32731 | 2.92393 | 6828 ft | 279 kts | 198° |
| 2026-04-22 18:04 | 42.30856 | 2.91666 | 6529 ft | 282 kts | 198° |
| 2026-04-22 18:05 | 42.28987 | 2.90943 | 6211 ft | 284 kts | 198° |
| 2026-04-22 18:05 | 42.27096 | 2.90215 | 5890 ft | 282 kts | 198° |
| 2026-04-22 18:05 | 42.25217 | 2.89491 | 5563 ft | 280 kts | 198° |
| 2026-04-22 18:05 | 42.23351 | 2.88774 | 5231 ft | 278 kts | 198° |
| 2026-04-22 18:06 | 42.21517 | 2.88028 | 4913 ft | 273 kts | 199° |
| 2026-04-22 18:06 | 42.19707 | 2.87299 | 4592 ft | 270 kts | 198° |
| 2026-04-22 18:06 | 42.17918 | 2.86607 | 4296 ft | 264 kts | 197° |
| 2026-04-22 18:06 | 42.16192 | 2.85952 | 4008 ft | 258 kts | 197° |
| 2026-04-22 18:07 | 42.14483 | 2.85305 | 3730 ft | 253 kts | 195° |
| 2026-04-22 18:07 | 42.12813 | 2.84673 | 3616 ft | 245 kts | 196° |
| 2026-04-22 18:07 | 42.11208 | 2.84065 | 3591 ft | 234 kts | 195° |
| 2026-04-22 18:07 | 42.09674 | 2.83483 | 3574 ft | 226 kts | 195° |
| 2026-04-22 18:08 | 42.08187 | 2.82919 | 3593 ft | 219 kts | 195° |
| 2026-04-22 18:08 | 42.06712 | 2.82360 | 3544 ft | 223 kts | 196° |
| 2026-04-22 18:08 | 42.05210 | 2.81790 | 3292 ft | 224 kts | 195° |
| 2026-04-22 18:08 | 42.03719 | 2.81225 | 3010 ft | 220 kts | 194° |
| 2026-04-22 18:09 | 42.02277 | 2.80678 | 2714 ft | 214 kts | 194° |
| 2026-04-22 18:09 | 42.00896 | 2.80153 | 2419 ft | 199 kts | 193° |
| 2026-04-22 18:09 | 41.99605 | 2.79663 | 2144 ft | 187 kts | 193° |
| 2026-04-22 18:09 | 41.98402 | 2.79207 | 1959 ft | 172 kts | 193° |
| 2026-04-22 18:10 | 41.97247 | 2.78771 | 1695 ft | 172 kts | 193° |
| 2026-04-22 18:10 | 41.96102 | 2.78337 | 1450 ft | 170 kts | 193° |
| 2026-04-22 18:10 | 41.94979 | 2.77908 | 1235 ft | 169 kts | 192° |
| 2026-04-22 18:10 | 41.93842 | 2.77477 | 1088 ft | 170 kts | 194° |
| 2026-04-22 18:11 | 41.92710 | 2.77047 | 793 ft | 171 kts | 193° |
| 2026-04-22 18:11 | 41.91569 | 2.76615 | 560 ft | 172 kts | 194° |
| 2026-04-22 18:11 | 41.90475 | 2.76199 | 454 ft | 141 kts | 195° |
| 2026-04-22 18:11 | 41.89784 | 2.75937 | 424 ft | 47 kts | 196° |
| 2026-04-22 18:12 | 41.89596 | 2.75866 | 416 ft | 13 kts | 195° |
| 2026-04-22 18:12 | 41.89515 | 2.75896 | 411 ft | 13 kts | 92° |
| 2026-04-22 18:12 | 41.89536 | 2.75970 | 407 ft | 13 kts | 60° |
| 2026-04-22 18:12 | 41.89603 | 2.76099 | 412 ft | 13 kts | 27° |
| 2026-04-22 18:13 | 41.89685 | 2.76131 | 416 ft | 12 kts | 15° |
| 2026-04-22 18:13 | 41.89766 | 2.76162 | 414 ft | 12 kts | 16° |
| 2026-04-22 18:13 | 41.89844 | 2.76192 | 424 ft | 12 kts | 16° |
| 2026-04-22 18:13 | 41.89910 | 2.76240 | 424 ft | 11 kts | 74° |
| 2026-04-22 18:14 | 41.89890 | 2.76344 | 417 ft | 10 kts | 109° |
| 2026-04-22 18:14 | 41.89864 | 2.76423 | 418 ft | 9 kts | 106° |
| 2026-04-22 18:14 | 41.89853 | 2.76478 | 416 ft | 1 kts | 105° |
| 2026-04-22 18:14 | 41.89853 | 2.76479 | 416 ft | 0 kts | 105° |